Time,TemperatureF,DewpointF,PressureIn,WindDirection,WindDirectionDegrees,WindSpeedMPH,WindSpeedGustMPH,Humidity,HourlyPrecipIn,Conditions,Clouds,dailyrainin,SolarRadiationWatts/m^2,SoftwareType,DateUTC
2013-12-12 00:00:00,68.9,53.5,29.89,East,84,5.0,6.0,58,0.00,,,0.00,0,Wunderground v.1.15,2013-12-12 10:00:00,
2013-12-12 00:30:00,68.6,52.8,29.89,East,93,4.0,6.0,57,0.00,,,0.00,0,Wunderground v.1.15,2013-12-12 10:30:00,
2013-12-12 01:00:00,68.6,52.8,29.88,East,91,5.0,5.0,57,0.00,,,0.00,0,Wunderground v.1.15,2013-12-12 11:00:00,
2013-12-12 01:30:00,68.1,52.3,29.88,ESE,111,5.0,5.0,57,0.00,,,0.00,0,Wunderground v.1.15,2013-12-12 11:30:00,
2013-12-12 02:00:00,67.6,53.7,29.89,SE,125,4.0,4.0,61,0.00,,,0.00,0,Wunderground v.1.15,2013-12-12 12:00:00,
2013-12-12 02:30:00,67.9,56.1,29.89,ESE,117,4.0,7.0,66,0.00,,,0.00,0,Wunderground v.1.15,2013-12-12 12:30:00,
2013-12-12 03:00:00,66.6,55.7,29.88,SE,130,2.0,3.0,68,0.00,,,0.00,0,Wunderground v.1.15,2013-12-12 13:00:00,
2013-12-12 03:30:00,66.3,56.6,29.88,SE,135,2.0,2.0,71,0.00,,,0.00,0,Wunderground v.1.15,2013-12-12 13:30:00,
2013-12-12 04:00:00,66.3,57.0,29.88,SE,136,2.0,3.0,72,0.00,,,0.00,0,Wunderground v.1.15,2013-12-12 14:00:00,
2013-12-12 04:30:00,66.3,57.8,29.89,SE,136,2.0,2.0,74,0.00,,,0.00,0,Wunderground v.1.15,2013-12-12 14:30:00,
2013-12-12 05:00:00,66.1,57.9,29.89,SE,136,3.0,3.0,75,0.00,,,0.00,0,Wunderground v.1.15,2013-12-12 15:00:00,
2013-12-12 05:30:00,66.0,58.6,29.91,SE,136,2.0,3.0,77,0.00,,,0.00,0,Wunderground v.1.15,2013-12-12 15:30:00,
2013-12-12 06:00:00,66.8,59.7,29.92,SE,136,0.0,0.0,78,0.00,,,0.00,0,Wunderground v.1.15,2013-12-12 16:00:00,
2013-12-12 06:30:00,66.9,59.8,29.92,SE,135,1.0,1.0,78,0.00,,,0.00,0,Wunderground v.1.15,2013-12-12 16:30:00,
2013-12-12 07:00:00,66.6,59.5,29.93,SE,135,1.0,2.0,78,0.00,,,0.00,9,Wunderground v.1.15,2013-12-12 17:00:00,
2013-12-12 07:30:00,66.0,58.6,29.94,ESE,119,4.0,6.0,77,0.00,,,0.00,81,Wunderground v.1.15,2013-12-12 17:30:00,
2013-12-12 08:00:00,69.9,60.5,29.94,ESE,119,1.0,1.0,72,0.00,,,0.00,134,Wunderground v.1.15,2013-12-12 18:00:00,
2013-12-12 08:30:00,73.3,61.7,29.94,ESE,119,1.0,1.0,67,0.00,,,0.00,267,Wunderground v.1.15,2013-12-12 18:30:00,
2013-12-12 09:30:00,76.5,62.0,29.95,ESE,119,0.0,0.0,61,0.00,,,0.00,480,Wunderground v.1.15,2013-12-12 19:30:00,
2013-12-12 10:00:00,77.0,61.1,29.94,NNE,22,1.0,1.0,58,0.00,,,0.00,566,Wunderground v.1.15,2013-12-12 20:00:00,
2013-12-12 10:30:00,77.7,61.7,29.93,NW,325,3.0,3.0,58,0.00,,,0.00,700,Wunderground v.1.15,2013-12-12 20:30:00,
2013-12-12 11:00:00,78.3,61.3,29.92,WNW,294,4.0,5.0,56,0.00,,,0.00,524,Wunderground v.1.15,2013-12-12 21:00:00,
2013-12-12 11:30:00,78.6,61.1,29.90,WNW,300,5.0,5.0,55,0.00,,,0.00,701,Wunderground v.1.15,2013-12-12 21:30:00,
2013-12-12 12:00:00,78.6,61.6,29.88,WNW,298,6.0,6.0,56,0.00,,,0.00,722,Wunderground v.1.15,2013-12-12 22:00:00,
2013-12-12 12:30:00,78.5,61.0,29.87,WNW,298,5.0,5.0,55,0.00,,,0.00,712,Wunderground v.1.15,2013-12-12 22:30:00,
2013-12-12 13:00:00,78.3,63.3,29.85,West,277,4.0,11.0,60,0.00,,,0.00,728,Wunderground v.1.15,2013-12-12 23:00:00,
2013-12-12 13:30:00,78.1,63.1,29.84,NW,326,5.0,5.0,60,0.00,,,0.00,691,Wunderground v.1.15,2013-12-12 23:30:00,
2013-12-12 14:00:00,78.3,61.8,29.83,WNW,290,4.0,4.0,57,0.00,,,0.00,606,Wunderground v.1.15,2013-12-13 00:00:00,
2013-12-12 14:30:00,78.1,62.1,29.82,WNW,293,3.0,11.0,58,0.00,,,0.00,522,Wunderground v.1.15,2013-12-13 00:30:00,
2013-12-12 15:00:00,77.7,62.7,29.83,WNW,284,4.0,6.0,60,0.00,,,0.00,287,Wunderground v.1.15,2013-12-13 01:00:00,
2013-12-12 15:30:00,77.0,62.5,29.83,WNW,283,4.0,4.0,61,0.00,,,0.00,278,Wunderground v.1.15,2013-12-13 01:30:00,
2013-12-12 16:00:00,76.1,63.5,29.84,NW,309,4.0,4.0,65,0.00,,,0.00,160,Wunderground v.1.15,2013-12-13 02:00:00,
2013-12-12 16:30:00,75.4,64.9,29.86,WNW,294,3.0,3.0,70,0.00,,,0.00,105,Wunderground v.1.15,2013-12-13 02:30:00,
2013-12-12 17:00:00,75.4,64.9,29.87,WNW,292,2.0,2.0,70,0.00,,,0.00,33,Wunderground v.1.15,2013-12-13 03:00:00,
2013-12-12 17:30:00,74.9,64.9,29.88,WNW,291,1.0,1.0,71,0.00,,,0.00,7,Wunderground v.1.15,2013-12-13 03:30:00,
2013-12-12 18:00:00,74.6,65.4,29.90,WNW,291,1.0,4.0,73,0.00,,,0.00,0,Wunderground v.1.15,2013-12-13 04:00:00,
2013-12-12 18:30:00,74.0,64.4,29.92,WNW,289,2.0,2.0,72,0.00,,,0.00,0,Wunderground v.1.15,2013-12-13 04:30:00,
2013-12-12 19:00:00,74.0,64.8,29.92,WNW,289,2.0,2.0,73,0.00,,,0.00,0,Wunderground v.1.15,2013-12-13 05:00:00,
2013-12-12 19:30:00,73.7,64.9,29.93,WNW,289,1.0,1.0,74,0.00,,,0.00,0,Wunderground v.1.15,2013-12-13 05:30:00,
2013-12-12 20:00:00,73.5,65.1,29.94,WNW,289,0.0,0.0,75,0.00,,,0.00,0,Wunderground v.1.15,2013-12-13 06:00:00,
2013-12-12 20:30:00,73.5,65.5,29.95,WNW,289,0.0,2.0,76,0.00,,,0.00,0,Wunderground v.1.15,2013-12-13 06:30:00,
2013-12-12 21:00:00,73.2,65.2,29.96,WNW,289,0.0,0.0,76,0.00,,,0.00,0,Wunderground v.1.15,2013-12-13 07:00:00,
2013-12-12 21:30:00,73.0,65.0,29.96,WNW,289,0.0,0.0,76,0.00,,,0.00,0,Wunderground v.1.15,2013-12-13 07:30:00,
2013-12-12 22:00:00,72.8,64.0,29.96,WNW,289,0.0,2.0,74,0.00,,,0.00,0,Wunderground v.1.15,2013-12-13 08:00:00,
2013-12-12 22:30:00,72.3,62.8,29.96,WNW,289,0.0,0.0,72,0.00,,,0.00,0,Wunderground v.1.15,2013-12-13 08:30:00,
2013-12-12 23:00:00,70.1,60.3,29.95,South,175,1.0,1.0,71,0.00,,,0.00,0,Wunderground v.1.15,2013-12-13 09:00:00,
2013-12-12 23:30:00,68.9,60.3,29.95,South,175,1.0,1.0,74,0.00,,,0.00,0,Wunderground v.1.15,2013-12-13 09:30:00,